sensor_id;sensor_type;location;lat;lon;timestamp;pressure;altitude;pressure_sealevel;temperature;humidity
3968;BME280;9221;42.646;23.380;2022-07-29T00:00:14;94716.50;;;19.19;91.80
3968;BME280;9221;42.646;23.380;2022-07-29T00:02:39;94760.72;;;19.28;92.37
3968;BME280;9221;42.646;23.380;2022-07-29T00:05:05;94768.13;;;19.20;93.23
3968;BME280;9221;42.646;23.380;2022-07-29T00:07:31;94738.84;;;19.05;92.70
3968;BME280;9221;42.646;23.380;2022-07-29T00:09:56;94720.06;;;18.91;92.99
3968;BME280;9221;42.646;23.380;2022-07-29T00:12:23;94645.22;;;18.43;92.78
3968;BME280;9221;42.646;23.380;2022-07-29T00:14:49;94838.88;;;19.24;93.43
3968;BME280;9221;42.646;23.380;2022-07-29T00:17:14;94782.13;;;19.28;93.70
3968;BME280;9221;42.646;23.380;2022-07-29T00:19:40;94729.34;;;18.96;93.33
3968;BME280;9221;42.646;23.380;2022-07-29T00:22:05;94782.56;;;19.32;93.24
3968;BME280;9221;42.646;23.380;2022-07-29T00:24:31;94715.97;;;18.96;91.84
3968;BME280;9221;42.646;23.380;2022-07-29T00:26:56;94719.97;;;19.13;91.64
3968;BME280;9221;42.646;23.380;2022-07-29T00:29:22;94728.25;;;19.32;90.60
3968;BME280;9221;42.646;23.380;2022-07-29T00:31:47;94740.03;;;19.44;90.28
3968;BME280;9221;42.646;23.380;2022-07-29T00:34:13;94762.69;;;19.68;90.71
3968;BME280;9221;42.646;23.380;2022-07-29T00:36:57;94762.97;;;19.80;90.54
3968;BME280;9221;42.646;23.380;2022-07-29T00:39:23;94738.44;;;19.63;89.90
3968;BME280;9221;42.646;23.380;2022-07-29T00:41:49;94762.91;;;19.73;90.47
3968;BME280;9221;42.646;23.380;2022-07-29T00:44:14;94766.69;;;19.92;90.02
3968;BME280;9221;42.646;23.380;2022-07-29T00:46:40;94638.50;;;19.02;90.38
3968;BME280;9221;42.646;23.380;2022-07-29T00:49:05;94769.16;;;19.87;90.39
3968;BME280;9221;42.646;23.380;2022-07-29T00:51:34;94762.06;;;19.59;90.13
3968;BME280;9221;42.646;23.380;2022-07-29T00:54:00;94793.25;;;20.01;90.26
3968;BME280;9221;42.646;23.380;2022-07-29T00:56:26;94775.78;;;20.25;89.53
3968;BME280;9221;42.646;23.380;2022-07-29T00:58:53;94750.44;;;20.14;89.24
3968;BME280;9221;42.646;23.380;2022-07-29T01:01:19;94788.34;;;20.31;88.61
3968;BME280;9221;42.646;23.380;2022-07-29T01:03:44;94679.78;;;19.61;89.20
3968;BME280;9221;42.646;23.380;2022-07-29T01:06:10;94775.78;;;20.45;89.01
3968;BME280;9221;42.646;23.380;2022-07-29T01:08:35;94727.16;;;20.35;88.86
3968;BME280;9221;42.646;23.380;2022-07-29T01:11:02;94778.66;;;20.63;88.82
3968;BME280;9221;42.646;23.380;2022-07-29T01:13:29;94770.41;;;20.72;88.75
3968;BME280;9221;42.646;23.380;2022-07-29T01:15:59;94786.50;;;20.72;88.70
3968;BME280;9221;42.646;23.380;2022-07-29T01:18:32;94763.38;;;20.77;88.16
3968;BME280;9221;42.646;23.380;2022-07-29T01:26:31;94771.97;;;21.06;85.79
3968;BME280;9221;42.646;23.380;2022-07-29T01:31:33;94772.06;;;20.86;86.62
3968;BME280;9221;42.646;23.380;2022-07-29T01:34:03;94778.22;;;20.80;87.25
3968;BME280;9221;42.646;23.380;2022-07-29T01:36:38;94762.56;;;20.84;87.93
3968;BME280;9221;42.646;23.380;2022-07-29T01:39:10;94713.09;;;20.59;87.71
3968;BME280;9221;42.646;23.380;2022-07-29T01:41:40;94733.16;;;20.37;87.87
3968;BME280;9221;42.646;23.380;2022-07-29T01:44:16;94755.59;;;20.22;89.59
3968;BME280;9221;42.646;23.380;2022-07-29T01:46:49;94745.31;;;20.19;90.66
3968;BME280;9221;42.646;23.380;2022-07-29T01:49:21;94695.00;;;19.68;89.48
3968;BME280;9221;42.646;23.380;2022-07-29T01:51:52;94741.19;;;20.23;89.64
3968;BME280;9221;42.646;23.380;2022-07-29T01:54:32;94779.06;;;20.47;89.74
3968;BME280;9221;42.646;23.380;2022-07-29T01:57:00;94739.53;;;20.42;89.39
3968;BME280;9221;42.646;23.380;2022-07-29T01:59:26;94674.44;;;19.88;89.53
3968;BME280;9221;42.646;23.380;2022-07-29T02:01:54;94698.34;;;19.97;89.23
3968;BME280;9221;42.646;23.380;2022-07-29T02:04:21;94698.34;;;19.97;89.89
3968;BME280;9221;42.646;23.380;2022-07-29T02:06:49;94757.41;;;19.88;89.56
3968;BME280;9221;42.646;23.380;2022-07-29T02:09:17;94734.00;;;19.28;92.47
3968;BME280;9221;42.646;23.380;2022-07-29T02:11:48;94687.03;;;18.99;93.08
3968;BME280;9221;42.646;23.380;2022-07-29T02:14:17;94626.53;;;18.43;93.78
3968;BME280;9221;42.646;23.380;2022-07-29T02:16:44;94736.81;;;19.07;94.44
3968;BME280;9221;42.646;23.380;2022-07-29T02:19:11;94692.50;;;18.49;95.84
3968;BME280;9221;42.646;23.380;2022-07-29T02:21:38;94726.25;;;18.57;97.07
3968;BME280;9221;42.646;23.380;2022-07-29T02:24:04;94669.44;;;18.35;96.80
3968;BME280;9221;42.646;23.380;2022-07-29T02:26:32;94758.63;;;18.75;96.43
3968;BME280;9221;42.646;23.380;2022-07-29T02:28:59;94733.34;;;18.78;96.66
3968;BME280;9221;42.646;23.380;2022-07-29T02:31:30;94677.72;;;18.47;96.53
3968;BME280;9221;42.646;23.380;2022-07-29T02:33:58;94684.13;;;18.52;96.05
3968;BME280;9221;42.646;23.380;2022-07-29T02:36:25;94729.81;;;18.71;95.64
3968;BME280;9221;42.646;23.380;2022-07-29T02:38:52;94729.31;;;18.89;95.62
3968;BME280;9221;42.646;23.380;2022-07-29T02:41:52;94724.41;;;18.92;95.88
3968;BME280;9221;42.646;23.380;2022-07-29T02:44:24;94728.50;;;18.88;95.76
3968;BME280;9221;42.646;23.380;2022-07-29T02:46:55;94672.63;;;18.58;96.33
3968;BME280;9221;42.646;23.380;2022-07-29T02:49:46;94714.06;;;18.83;96.28
3968;BME280;9221;42.646;23.380;2022-07-29T02:54:53;94746.41;;;18.59;97.75
3968;BME280;9221;42.646;23.380;2022-07-29T02:57:31;94711.50;;;18.68;97.64
3968;BME280;9221;42.646;23.380;2022-07-29T03:00:03;94685.56;;;18.55;97.54
3968;BME280;9221;42.646;23.380;2022-07-29T03:02:33;94721.47;;;18.87;96.70
3968;BME280;9221;42.646;23.380;2022-07-29T03:05:02;94727.50;;;18.96;96.44
3968;BME280;9221;42.646;23.380;2022-07-29T03:07:28;94723.19;;;18.95;96.72
3968;BME280;9221;42.646;23.380;2022-07-29T03:09:54;94812.31;;;18.87;96.99
3968;BME280;9221;42.646;23.380;2022-07-29T03:12:20;94666.50;;;18.65;97.18
3968;BME280;9221;42.646;23.380;2022-07-29T03:14:46;94704.91;;;18.99;97.38
3968;BME280;9221;42.646;23.380;2022-07-29T03:17:12;94713.34;;;19.02;97.45
3968;BME280;9221;42.646;23.380;2022-07-29T03:19:38;94600.56;;;18.23;97.83
3968;BME280;9221;42.646;23.380;2022-07-29T03:22:04;94655.84;;;18.78;97.68
3968;BME280;9221;42.646;23.380;2022-07-29T03:24:34;94701.53;;;19.32;97.37
3968;BME280;9221;42.646;23.380;2022-07-29T03:27:01;94750.53;;;19.52;95.84
3968;BME280;9221;42.646;23.380;2022-07-29T03:29:27;94665.91;;;19.24;95.73
3968;BME280;9221;42.646;23.380;2022-07-29T03:31:53;94705.22;;;19.31;95.83
3968;BME280;9221;42.646;23.380;2022-07-29T03:34:19;94694.03;;;19.07;96.12
3968;BME280;9221;42.646;23.380;2022-07-29T03:36:45;94717.53;;;19.25;96.58
3968;BME280;9221;42.646;23.380;2022-07-29T03:39:12;94707.59;;;18.99;97.84
3968;BME280;9221;42.646;23.380;2022-07-29T03:41:42;94710.47;;;19.04;98.47
3968;BME280;9221;42.646;23.380;2022-07-29T03:44:09;94721.16;;;19.04;98.43
3968;BME280;9221;42.646;23.380;2022-07-29T03:46:36;94740.91;;;19.03;98.81
3968;BME280;9221;42.646;23.380;2022-07-29T03:49:04;94674.88;;;18.61;100.00
3968;BME280;9221;42.646;23.380;2022-07-29T03:51:30;94714.75;;;18.56;100.00
3968;BME280;9221;42.646;23.380;2022-07-29T03:53:56;94756.88;;;18.89;99.93
3968;BME280;9221;42.646;23.380;2022-07-29T03:56:23;94670.19;;;18.64;99.54
3968;BME280;9221;42.646;23.380;2022-07-29T03:58:51;94727.34;;;19.04;98.43
3968;BME280;9221;42.646;23.380;2022-07-29T04:01:18;94735.97;;;19.06;97.09
3968;BME280;9221;42.646;23.380;2022-07-29T04:03:44;94761.66;;;18.72;96.08
3968;BME280;9221;42.646;23.380;2022-07-29T04:06:13;94687.22;;;18.63;96.59
3968;BME280;9221;42.646;23.380;2022-07-29T04:08:38;94760.63;;;19.02;96.65
3968;BME280;9221;42.646;23.380;2022-07-29T04:11:05;94761.84;;;18.99;97.00
3968;BME280;9221;42.646;23.380;2022-07-29T04:13:31;94743.41;;;19.11;96.49
3968;BME280;9221;42.646;23.380;2022-07-29T04:15:57;94673.38;;;18.87;95.51
3968;BME280;9221;42.646;23.380;2022-07-29T04:18:22;94776.78;;;19.22;94.76
3968;BME280;9221;42.646;23.380;2022-07-29T04:20:48;94730.31;;;19.30;94.45
3968;BME280;9221;42.646;23.380;2022-07-29T04:23:14;94707.22;;;19.15;94.01
3968;BME280;9221;42.646;23.380;2022-07-29T04:25:40;94792.09;;;19.48;93.36
3968;BME280;9221;42.646;23.380;2022-07-29T04:28:06;94670.63;;;19.16;93.19
3968;BME280;9221;42.646;23.380;2022-07-29T04:30:33;94722.34;;;19.56;92.87
3968;BME280;9221;42.646;23.380;2022-07-29T04:33:00;94680.75;;;19.34;92.98
3968;BME280;9221;42.646;23.380;2022-07-29T04:35:26;94752.25;;;19.80;92.36
3968;BME280;9221;42.646;23.380;2022-07-29T04:37:52;94740.47;;;19.68;92.78
3968;BME280;9221;42.646;23.380;2022-07-29T04:40:17;94693.69;;;19.37;92.38
3968;BME280;9221;42.646;23.380;2022-07-29T04:42:43;94690.44;;;19.48;91.98
3968;BME280;9221;42.646;23.380;2022-07-29T04:45:08;94747.66;;;19.54;93.24
3968;BME280;9221;42.646;23.380;2022-07-29T04:47:34;94715.28;;;19.28;93.15
3968;BME280;9221;42.646;23.380;2022-07-29T04:50:00;94789.19;;;19.43;93.65
3968;BME280;9221;42.646;23.380;2022-07-29T04:52:25;94757.63;;;19.80;92.99
3968;BME280;9221;42.646;23.380;2022-07-29T04:54:50;94694.19;;;19.74;91.86
3968;BME280;9221;42.646;23.380;2022-07-29T04:57:16;94704.53;;;19.90;90.51
3968;BME280;9221;42.646;23.380;2022-07-29T04:59:41;94747.78;;;20.41;90.18
3968;BME280;9221;42.646;23.380;2022-07-29T05:02:07;94786.50;;;20.25;90.05
3968;BME280;9221;42.646;23.380;2022-07-29T05:04:32;94722.63;;;20.02;90.39
3968;BME280;9221;42.646;23.380;2022-07-29T05:06:58;94744.06;;;20.02;90.31
3968;BME280;9221;42.646;23.380;2022-07-29T05:09:23;94746.53;;;20.23;90.15
3968;BME280;9221;42.646;23.380;2022-07-29T05:11:49;94788.13;;;20.53;90.18
3968;BME280;9221;42.646;23.380;2022-07-29T05:14:14;94672.34;;;20.31;89.13
3968;BME280;9221;42.646;23.380;2022-07-29T05:16:40;94769.28;;;21.13;87.16
3968;BME280;9221;42.646;23.380;2022-07-29T05:19:06;94758.38;;;21.08;86.96
3968;BME280;9221;42.646;23.380;2022-07-29T05:21:31;94802.53;;;20.99;87.22
3968;BME280;9221;42.646;23.380;2022-07-29T05:23:57;94742.16;;;20.83;87.59
3968;BME280;9221;42.646;23.380;2022-07-29T05:26:22;94788.88;;;21.20;86.78
3968;BME280;9221;42.646;23.380;2022-07-29T05:28:47;94735.22;;;21.20;86.21
3968;BME280;9221;42.646;23.380;2022-07-29T05:31:13;94754.84;;;21.66;85.46
3968;BME280;9221;42.646;23.380;2022-07-29T05:33:40;94714.06;;;21.44;83.61
3968;BME280;9221;42.646;23.380;2022-07-29T05:36:06;94785.81;;;22.01;84.23
3968;BME280;9221;42.646;23.380;2022-07-29T05:38:32;94772.72;;;22.11;81.65
3968;BME280;9221;42.646;23.380;2022-07-29T05:40:58;94802.72;;;22.08;82.27
3968;BME280;9221;42.646;23.380;2022-07-29T05:43:25;94754.00;;;22.29;80.78
3968;BME280;9221;42.646;23.380;2022-07-29T05:45:51;94795.53;;;22.59;80.47
3968;BME280;9221;42.646;23.380;2022-07-29T05:48:16;94768.25;;;22.80;79.24
3968;BME280;9221;42.646;23.380;2022-07-29T05:50:42;94811.16;;;22.69;77.83
3968;BME280;9221;42.646;23.380;2022-07-29T05:53:07;94784.63;;;22.97;77.80
3968;BME280;9221;42.646;23.380;2022-07-29T05:55:32;94745.03;;;22.86;77.38
3968;BME280;9221;42.646;23.380;2022-07-29T05:57:58;94776.13;;;23.01;76.13
3968;BME280;9221;42.646;23.380;2022-07-29T06:00:23;94769.91;;;23.00;76.41
3968;BME280;9221;42.646;23.380;2022-07-29T06:02:49;94784.03;;;22.95;76.21
3968;BME280;9221;42.646;23.380;2022-07-29T06:05:14;94754.22;;;22.97;75.77
3968;BME280;9221;42.646;23.380;2022-07-29T06:07:40;94724.19;;;22.81;75.87
3968;BME280;9221;42.646;23.380;2022-07-29T06:10:06;94775.09;;;23.20;75.93
3968;BME280;9221;42.646;23.380;2022-07-29T06:12:31;94735.63;;;23.14;75.76
3968;BME280;9221;42.646;23.380;2022-07-29T06:14:57;94781.72;;;23.55;75.28
3968;BME280;9221;42.646;23.380;2022-07-29T06:17:23;94783.75;;;23.59;75.62
3968;BME280;9221;42.646;23.380;2022-07-29T06:19:48;94743.53;;;23.46;74.55
3968;BME280;9221;42.646;23.380;2022-07-29T06:22:15;94796.22;;;23.72;74.88
3968;BME280;9221;42.646;23.380;2022-07-29T06:24:41;94814.09;;;23.48;75.94
3968;BME280;9221;42.646;23.380;2022-07-29T06:27:11;94749.34;;;22.87;76.80
3968;BME280;9221;42.646;23.380;2022-07-29T06:29:37;94725.81;;;22.82;78.02
3968;BME280;9221;42.646;23.380;2022-07-29T06:32:03;94803.50;;;23.35;78.32
3968;BME280;9221;42.646;23.380;2022-07-29T06:34:28;94788.69;;;23.62;77.35
3968;BME280;9221;42.646;23.380;2022-07-29T06:36:54;94773.25;;;23.70;75.67
3968;BME280;9221;42.646;23.380;2022-07-29T06:39:20;94740.09;;;23.39;75.81
3968;BME280;9221;42.646;23.380;2022-07-29T06:41:49;94783.63;;;23.66;74.47
3968;BME280;9221;42.646;23.380;2022-07-29T06:44:16;94775.38;;;23.68;75.32
3968;BME280;9221;42.646;23.380;2022-07-29T06:46:42;94744.09;;;23.66;74.70
3968;BME280;9221;42.646;23.380;2022-07-29T06:49:08;94801.28;;;23.80;74.87
3968;BME280;9221;42.646;23.380;2022-07-29T06:51:34;94777.38;;;24.03;74.27
3968;BME280;9221;42.646;23.380;2022-07-29T06:53:59;94753.97;;;24.15;73.41
3968;BME280;9221;42.646;23.380;2022-07-29T06:56:25;94779.56;;;24.48;73.05
3968;BME280;9221;42.646;23.380;2022-07-29T06:58:51;94779.34;;;24.38;72.06
3968;BME280;9221;42.646;23.380;2022-07-29T07:01:17;94715.00;;;23.87;72.93
3968;BME280;9221;42.646;23.380;2022-07-29T07:03:42;94753.31;;;24.31;72.08
3968;BME280;9221;42.646;23.380;2022-07-29T07:06:07;94768.44;;;24.32;72.32
3968;BME280;9221;42.646;23.380;2022-07-29T07:08:33;94809.25;;;24.60;73.06
3968;BME280;9221;42.646;23.380;2022-07-29T07:10:59;94833.94;;;24.75;71.60
3968;BME280;9221;42.646;23.380;2022-07-29T07:13:25;94767.66;;;24.91;68.66
3968;BME280;9221;42.646;23.380;2022-07-29T07:15:50;94761.81;;;24.82;68.03
3968;BME280;9221;42.646;23.380;2022-07-29T07:18:17;94717.22;;;24.56;68.66
3968;BME280;9221;42.646;23.380;2022-07-29T07:20:44;94736.69;;;24.82;68.03
3968;BME280;9221;42.646;23.380;2022-07-29T07:23:10;94728.59;;;25.06;67.35
3968;BME280;9221;42.646;23.380;2022-07-29T07:25:35;94716.84;;;25.00;67.10
3968;BME280;9221;42.646;23.380;2022-07-29T07:28:01;94706.81;;;25.24;66.37
3968;BME280;9221;42.646;23.380;2022-07-29T07:30:27;94721.63;;;25.33;65.31
3968;BME280;9221;42.646;23.380;2022-07-29T07:32:53;94742.59;;;25.43;65.39
3968;BME280;9221;42.646;23.380;2022-07-29T07:35:18;94753.09;;;25.40;64.69
3968;BME280;9221;42.646;23.380;2022-07-29T07:37:44;94751.53;;;25.44;64.82
3968;BME280;9221;42.646;23.380;2022-07-29T07:40:10;94810.28;;;25.65;65.30
3968;BME280;9221;42.646;23.380;2022-07-29T07:42:40;94735.00;;;25.69;64.34
3968;BME280;9221;42.646;23.380;2022-07-29T07:45:06;94757.09;;;25.95;63.58
3968;BME280;9221;42.646;23.380;2022-07-29T07:47:34;94771.38;;;25.78;62.93
3968;BME280;9221;42.646;23.380;2022-07-29T07:50:00;94715.19;;;25.63;64.86
3968;BME280;9221;42.646;23.380;2022-07-29T07:52:25;94751.66;;;26.07;64.08
3968;BME280;9221;42.646;23.380;2022-07-29T07:54:51;94704.25;;;25.87;61.80
3968;BME280;9221;42.646;23.380;2022-07-29T07:57:17;94769.44;;;26.20;61.88
3968;BME280;9221;42.646;23.380;2022-07-29T07:59:42;94749.72;;;26.36;62.60
3968;BME280;9221;42.646;23.380;2022-07-29T08:02:08;94750.69;;;26.13;60.85
3968;BME280;9221;42.646;23.380;2022-07-29T08:04:34;94762.75;;;26.22;60.67
3968;BME280;9221;42.646;23.380;2022-07-29T08:07:01;94709.84;;;25.97;61.19
3968;BME280;9221;42.646;23.380;2022-07-29T08:09:28;94711.59;;;26.04;60.06
3968;BME280;9221;42.646;23.380;2022-07-29T08:11:54;94765.78;;;26.60;59.65
3968;BME280;9221;42.646;23.380;2022-07-29T08:14:19;94758.25;;;26.79;57.76
3968;BME280;9221;42.646;23.380;2022-07-29T08:16:45;94737.75;;;26.83;58.42
3968;BME280;9221;42.646;23.380;2022-07-29T08:19:11;94693.13;;;26.85;56.41
3968;BME280;9221;42.646;23.380;2022-07-29T08:21:37;94756.59;;;27.56;55.95
3968;BME280;9221;42.646;23.380;2022-07-29T08:24:03;94697.50;;;27.53;55.65
3968;BME280;9221;42.646;23.380;2022-07-29T08:26:47;94704.41;;;27.93;53.72
3968;BME280;9221;42.646;23.380;2022-07-29T08:29:12;94700.28;;;28.13;51.21
3968;BME280;9221;42.646;23.380;2022-07-29T08:31:38;94749.38;;;28.81;51.44
3968;BME280;9221;42.646;23.380;2022-07-29T08:34:04;94734.75;;;28.50;50.65
3968;BME280;9221;42.646;23.380;2022-07-29T08:36:30;94749.78;;;28.30;49.66
3968;BME280;9221;42.646;23.380;2022-07-29T08:38:56;94737.41;;;28.40;50.10
3968;BME280;9221;42.646;23.380;2022-07-29T08:41:22;94756.81;;;28.96;48.32
3968;BME280;9221;42.646;23.380;2022-07-29T08:43:49;94732.13;;;29.51;47.48
3968;BME280;9221;42.646;23.380;2022-07-29T08:46:15;94693.03;;;29.67;45.54
3968;BME280;9221;42.646;23.380;2022-07-29T08:48:42;94760.88;;;29.36;46.23
3968;BME280;9221;42.646;23.380;2022-07-29T08:51:08;94702.53;;;29.54;45.51
3968;BME280;9221;42.646;23.380;2022-07-29T08:53:40;94741.00;;;29.99;43.88
3968;BME280;9221;42.646;23.380;2022-07-29T08:56:06;94701.31;;;30.24;43.81
3968;BME280;9221;42.646;23.380;2022-07-29T08:58:33;94678.38;;;29.84;44.41
3968;BME280;9221;42.646;23.380;2022-07-29T09:01:01;94680.91;;;30.32;42.44
3968;BME280;9221;42.646;23.380;2022-07-29T09:03:30;94672.44;;;30.80;42.05
3968;BME280;9221;42.646;23.380;2022-07-29T09:05:58;94708.72;;;31.61;40.86
3968;BME280;9221;42.646;23.380;2022-07-29T09:08:24;94757.88;;;31.96;39.89
3968;BME280;9221;42.646;23.380;2022-07-29T09:10:50;94727.34;;;31.33;40.99
3968;BME280;9221;42.646;23.380;2022-07-29T09:13:16;94679.88;;;31.39;42.09
3968;BME280;9221;42.646;23.380;2022-07-29T09:15:41;94776.34;;;32.19;40.34
3968;BME280;9221;42.646;23.380;2022-07-29T09:18:07;94720.41;;;32.12;40.59
3968;BME280;9221;42.646;23.380;2022-07-29T09:20:32;94718.41;;;31.83;40.64
3968;BME280;9221;42.646;23.380;2022-07-29T09:23:16;94722.91;;;31.53;40.35
3968;BME280;9221;42.646;23.380;2022-07-29T09:25:41;94741.56;;;31.10;41.41
3968;BME280;9221;42.646;23.380;2022-07-29T09:28:11;94732.84;;;30.97;42.15
3968;BME280;9221;42.646;23.380;2022-07-29T09:30:56;94723.31;;;31.15;41.65
3968;BME280;9221;42.646;23.380;2022-07-29T09:33:24;94668.41;;;30.51;42.16
3968;BME280;9221;42.646;23.380;2022-07-29T09:36:06;94727.97;;;30.43;44.90
3968;BME280;9221;42.646;23.380;2022-07-29T09:38:33;94674.56;;;30.98;42.78
3968;BME280;9221;42.646;23.380;2022-07-29T09:41:01;94725.75;;;31.87;41.74
3968;BME280;9221;42.646;23.380;2022-07-29T09:43:27;94733.47;;;32.25;40.00
3968;BME280;9221;42.646;23.380;2022-07-29T09:45:54;94722.63;;;32.49;40.47
3968;BME280;9221;42.646;23.380;2022-07-29T09:48:24;94716.34;;;32.09;39.60
3968;BME280;9221;42.646;23.380;2022-07-29T09:50:51;94707.88;;;32.16;40.43
3968;BME280;9221;42.646;23.380;2022-07-29T09:56:00;94666.47;;;32.97;38.79
3968;BME280;9221;42.646;23.380;2022-07-29T09:58:25;94714.00;;;32.71;38.81
3968;BME280;9221;42.646;23.380;2022-07-29T10:00:52;94685.84;;;33.49;38.52
3968;BME280;9221;42.646;23.380;2022-07-29T10:03:18;94653.28;;;34.10;37.40
3968;BME280;9221;42.646;23.380;2022-07-29T10:05:44;94687.44;;;34.97;35.05
3968;BME280;9221;42.646;23.380;2022-07-29T10:08:11;94659.06;;;34.08;35.39
3968;BME280;9221;42.646;23.380;2022-07-29T10:10:43;94682.28;;;34.11;36.08
3968;BME280;9221;42.646;23.380;2022-07-29T10:13:11;94692.88;;;33.55;37.24
3968;BME280;9221;42.646;23.380;2022-07-29T10:15:41;94681.25;;;33.20;38.13
3968;BME280;9221;42.646;23.380;2022-07-29T10:18:10;94679.94;;;32.59;38.64
3968;BME280;9221;42.646;23.380;2022-07-29T10:20:36;94626.69;;;31.47;39.87
3968;BME280;9221;42.646;23.380;2022-07-29T10:23:01;94668.50;;;32.56;39.86
3968;BME280;9221;42.646;23.380;2022-07-29T10:25:27;94686.34;;;32.44;39.88
3968;BME280;9221;42.646;23.380;2022-07-29T10:27:53;94652.88;;;33.16;39.70
3968;BME280;9221;42.646;23.380;2022-07-29T10:30:21;94687.47;;;34.31;38.18
3968;BME280;9221;42.646;23.380;2022-07-29T10:33:07;94674.19;;;34.71;34.99
3968;BME280;9221;42.646;23.380;2022-07-29T10:41:12;94667.69;;;34.34;34.92
3968;BME280;9221;42.646;23.380;2022-07-29T10:44:15;94672.19;;;34.25;34.37
3968;BME280;9221;42.646;23.380;2022-07-29T10:46:42;94630.19;;;34.16;34.31
3968;BME280;9221;42.646;23.380;2022-07-29T10:57:14;94647.25;;;35.06;32.65
3968;BME280;9221;42.646;23.380;2022-07-29T10:59:41;94635.03;;;34.71;33.29
3968;BME280;9221;42.646;23.380;2022-07-29T11:07:23;94545.81;;;33.52;34.31
3968;BME280;9221;42.646;23.380;2022-07-29T11:15:07;94592.53;;;34.40;33.99
3968;BME280;9221;42.646;23.380;2022-07-29T11:18:06;94628.03;;;34.32;33.18
3968;BME280;9221;42.646;23.380;2022-07-29T11:20:48;94625.03;;;34.61;33.31
3968;BME280;9221;42.646;23.380;2022-07-29T11:29:06;94602.09;;;35.68;32.31
3968;BME280;9221;42.646;23.380;2022-07-29T11:31:45;94573.28;;;35.29;31.54
3968;BME280;9221;42.646;23.380;2022-07-29T11:39:36;94615.69;;;36.33;31.10
3968;BME280;9221;42.646;23.380;2022-07-29T11:47:35;94598.78;;;35.94;29.88
3968;BME280;9221;42.646;23.380;2022-07-29T11:50:03;94571.16;;;36.22;29.76
3968;BME280;9221;42.646;23.380;2022-07-29T11:52:34;94606.50;;;36.37;30.64
3968;BME280;9221;42.646;23.380;2022-07-29T11:55:04;94569.41;;;36.49;29.34
3968;BME280;9221;42.646;23.380;2022-07-29T11:57:31;94603.50;;;35.66;30.11
3968;BME280;9221;42.646;23.380;2022-07-29T11:59:57;94584.69;;;35.08;30.57
3968;BME280;9221;42.646;23.380;2022-07-29T12:02:23;94524.00;;;34.73;31.20
3968;BME280;9221;42.646;23.380;2022-07-29T12:07:18;94581.47;;;37.02;29.43
3968;BME280;9221;42.646;23.380;2022-07-29T12:09:51;94627.69;;;36.68;28.35
3968;BME280;9221;42.646;23.380;2022-07-29T12:12:17;94605.25;;;35.98;30.07
3968;BME280;9221;42.646;23.380;2022-07-29T12:14:42;94617.38;;;36.20;29.56
3968;BME280;9221;42.646;23.380;2022-07-29T12:17:32;94589.25;;;35.78;30.19
3968;BME280;9221;42.646;23.380;2022-07-29T12:20:03;94547.69;;;35.48;29.67
3968;BME280;9221;42.646;23.380;2022-07-29T12:22:34;94619.94;;;35.80;30.17
3968;BME280;9221;42.646;23.380;2022-07-29T12:25:05;94582.47;;;35.98;29.51
3968;BME280;9221;42.646;23.380;2022-07-29T12:27:31;94591.31;;;35.72;30.08
3968;BME280;9221;42.646;23.380;2022-07-29T12:29:59;94566.91;;;35.70;28.37
3968;BME280;9221;42.646;23.380;2022-07-29T12:32:40;94580.56;;;35.98;29.10
3968;BME280;9221;42.646;23.380;2022-07-29T12:35:09;94570.97;;;35.73;28.71
3968;BME280;9221;42.646;23.380;2022-07-29T12:37:36;94584.13;;;36.30;28.71
3968;BME280;9221;42.646;23.380;2022-07-29T12:40:04;94524.00;;;36.20;28.48
3968;BME280;9221;42.646;23.380;2022-07-29T12:42:30;94535.44;;;35.90;28.26
3968;BME280;9221;42.646;23.380;2022-07-29T12:44:56;94526.22;;;35.86;28.88
3968;BME280;9221;42.646;23.380;2022-07-29T12:47:22;94452.25;;;35.22;29.46
3968;BME280;9221;42.646;23.380;2022-07-29T12:49:48;94573.91;;;36.22;28.84
3968;BME280;9221;42.646;23.380;2022-07-29T12:54:53;94546.94;;;35.79;28.88
3968;BME280;9221;42.646;23.380;2022-07-29T12:57:19;94599.63;;;36.49;28.52
3968;BME280;9221;42.646;23.380;2022-07-29T12:59:44;94580.66;;;36.38;28.43
3968;BME280;9221;42.646;23.380;2022-07-29T13:02:22;94530.50;;;36.24;29.32
3968;BME280;9221;42.646;23.380;2022-07-29T13:04:58;94509.13;;;36.52;29.26
3968;BME280;9221;42.646;23.380;2022-07-29T13:07:29;94543.81;;;36.71;28.75
3968;BME280;9221;42.646;23.380;2022-07-29T13:10:18;94566.75;;;36.66;28.08
3968;BME280;9221;42.646;23.380;2022-07-29T13:15:28;94537.44;;;35.39;30.00
3968;BME280;9221;42.646;23.380;2022-07-29T13:17:53;94552.31;;;35.61;29.83
3968;BME280;9221;42.646;23.380;2022-07-29T13:20:23;94512.13;;;35.42;29.91
3968;BME280;9221;42.646;23.380;2022-07-29T13:22:50;94485.34;;;35.39;30.50
3968;BME280;9221;42.646;23.380;2022-07-29T13:25:23;94494.50;;;35.21;29.85
3968;BME280;9221;42.646;23.380;2022-07-29T13:27:49;94536.94;;;35.37;30.58
3968;BME280;9221;42.646;23.380;2022-07-29T13:30:14;94544.00;;;35.52;29.89
3968;BME280;9221;42.646;23.380;2022-07-29T13:32:40;94539.00;;;35.32;29.56
3968;BME280;9221;42.646;23.380;2022-07-29T13:35:08;94561.44;;;35.34;30.18
3968;BME280;9221;42.646;23.380;2022-07-29T13:37:34;94487.25;;;35.02;30.00
3968;BME280;9221;42.646;23.380;2022-07-29T13:40:03;94488.19;;;35.34;30.00
3968;BME280;9221;42.646;23.380;2022-07-29T13:42:30;94470.91;;;34.97;30.21
3968;BME280;9221;42.646;23.380;2022-07-29T13:44:56;94503.41;;;34.90;30.46
3968;BME280;9221;42.646;23.380;2022-07-29T13:47:41;94489.31;;;34.83;30.28
3968;BME280;9221;42.646;23.380;2022-07-29T13:50:07;94478.75;;;34.90;30.20
3968;BME280;9221;42.646;23.380;2022-07-29T13:52:33;94513.00;;;35.15;29.69
3968;BME280;9221;42.646;23.380;2022-07-29T13:54:59;94550.75;;;35.46;29.82
3968;BME280;9221;42.646;23.380;2022-07-29T13:57:25;94490.72;;;35.45;30.35
3968;BME280;9221;42.646;23.380;2022-07-29T13:59:50;94554.13;;;35.66;30.29
3968;BME280;9221;42.646;23.380;2022-07-29T14:02:16;94475.72;;;34.91;30.76
3968;BME280;9221;42.646;23.380;2022-07-29T14:04:42;94537.81;;;34.68;30.80
3968;BME280;9221;42.646;23.380;2022-07-29T14:07:08;94451.34;;;34.06;31.58
3968;BME280;9221;42.646;23.380;2022-07-29T14:09:33;94537.81;;;34.82;30.71
3968;BME280;9221;42.646;23.380;2022-07-29T14:11:59;94535.78;;;34.88;31.59
3968;BME280;9221;42.646;23.380;2022-07-29T14:14:24;94531.41;;;34.87;31.21